Time;durP1;ratioP1;P1;durP2;ratioP2;P2;SDS_P1;SDS_P2;PMS_P1;PMS_P2;Temp;Humidity;BMP_temperature;BMP_pressure;BME280_temperature;BME280_humidity;BME280_pressure;Samples;Min_cycle;Max_cycle;Signal;HPM_P1;HPM_P2
2023/01/22 00:01:11;;;;;;;10.75;7.47;;;1.40;99.90;;;;;;4960941;28;20409;-60
2023/01/22 00:03:38;;;;;;;16.13;8.27;;;1.40;99.90;;;;;;4964306;28;20126;-60
2023/01/22 00:06:05;;;;;;;11.82;6.93;;;1.40;99.90;;;;;;4956593;28;20046;-60
2023/01/22 00:08:31;;;;;;;11.30;6.90;;;1.30;99.90;;;;;;4961980;28;20052;-60
2023/01/22 00:10:56;;;;;;;9.75;7.05;;;1.30;99.90;;;;;;4938808;28;20046;-60
2023/01/22 00:13:24;;;;;;;12.75;7.95;;;1.30;99.90;;;;;;4953450;28;20345;-60
2023/01/22 00:15:50;;;;;;;9.73;6.75;;;1.30;99.90;;;;;;4954140;28;20114;-60
2023/01/22 00:18:16;;;;;;;11.90;7.78;;;1.30;99.90;;;;;;4959263;28;20042;-60
2023/01/22 00:20:47;;;;;;;11.32;7.35;;;1.30;99.90;;;;;;4943612;28;20043;-60
2023/01/22 00:23:13;;;;;;;10.25;7.13;;;1.30;99.90;;;;;;4964686;28;20073;-60
2023/01/22 00:25:39;;;;;;;17.33;8.48;;;1.30;99.90;;;;;;4975222;28;20042;-60
2023/01/22 00:28:05;;;;;;;14.35;8.68;;;1.30;99.90;;;;;;4958034;28;20048;-60
2023/01/22 00:30:31;;;;;;;9.82;7.07;;;1.30;99.90;;;;;;4946294;28;20476;-60
2023/01/22 00:32:57;;;;;;;10.77;7.03;;;1.30;99.90;;;;;;4961412;28;20130;-60
2023/01/22 00:35:23;;;;;;;10.88;6.63;;;1.30;99.90;;;;;;4958105;28;20046;-60
2023/01/22 00:37:49;;;;;;;9.98;7.07;;;1.30;99.90;;;;;;4961189;28;20539;-60
2023/01/22 00:40:15;;;;;;;13.25;7.20;;;1.30;99.90;;;;;;4957343;28;20042;-60
2023/01/22 00:42:41;;;;;;;8.32;6.05;;;1.30;99.90;;;;;;4958006;28;20158;-60
2023/01/22 00:45:07;;;;;;;11.38;6.88;;;1.30;99.90;;;;;;4974503;28;20038;-60
2023/01/22 00:47:34;;;;;;;11.88;7.03;;;1.20;99.90;;;;;;4958886;28;20324;-60
2023/01/22 00:50:01;;;;;;;10.98;6.70;;;1.30;99.90;;;;;;4974813;28;20046;-61
2023/01/22 00:52:26;;;;;;;14.43;7.35;;;1.20;99.90;;;;;;4963634;28;20038;-61
2023/01/22 00:54:52;;;;;;;11.35;7.25;;;1.20;99.90;;;;;;4943757;28;20442;-60
2023/01/22 00:57:20;;;;;;;10.43;7.13;;;1.20;99.90;;;;;;4958247;28;20074;-61
2023/01/22 00:59:49;;;;;;;12.50;7.07;;;1.20;99.90;;;;;;4946335;28;20038;-61
2023/01/22 01:02:15;;;;;;;11.57;7.18;;;1.10;99.90;;;;;;4958735;28;20031;-61
2023/01/22 01:04:41;;;;;;;11.20;6.63;;;1.10;99.90;;;;;;4957223;28;20375;-61
2023/01/22 01:07:07;;;;;;;11.60;6.95;;;1.10;99.90;;;;;;4928131;28;20415;-60
2023/01/22 01:09:33;;;;;;;9.40;6.72;;;1.10;99.90;;;;;;4965793;28;20296;-60
2023/01/22 01:11:59;;;;;;;12.15;6.70;;;1.10;99.90;;;;;;4942539;28;20046;-60
2023/01/22 01:14:26;;;;;;;11.40;7.00;;;1.10;99.90;;;;;;4941935;28;20144;-61
2023/01/22 01:16:51;;;;;;;10.32;6.22;;;1.20;99.90;;;;;;4960801;28;20042;-60
2023/01/22 01:19:19;;;;;;;12.13;7.15;;;1.20;99.90;;;;;;4957005;28;20446;-59
2023/01/22 01:21:46;;;;;;;12.70;6.28;;;1.20;99.90;;;;;;4959845;28;20046;-60
2023/01/22 01:24:12;;;;;;;9.55;6.70;;;1.20;99.90;;;;;;4957543;28;20046;-61
2023/01/22 01:26:41;;;;;;;10.95;6.93;;;1.30;99.90;;;;;;4958171;28;20069;-60
2023/01/22 01:29:09;;;;;;;10.32;6.60;;;1.30;99.90;;;;;;4937334;28;20055;-60
2023/01/22 01:31:36;;;;;;;8.43;5.90;;;1.30;99.90;;;;;;4949394;28;20046;-60
2023/01/22 01:34:02;;;;;;;10.38;6.18;;;1.30;99.90;;;;;;4942249;28;20050;-60
2023/01/22 01:36:28;;;;;;;10.70;6.20;;;1.50;99.90;;;;;;4974591;28;20049;-60
2023/01/22 01:38:54;;;;;;;9.07;6.57;;;1.30;99.90;;;;;;4959719;28;20042;-60
2023/01/22 01:41:25;;;;;;;10.82;6.97;;;1.20;99.90;;;;;;4964154;28;20268;-60
2023/01/22 01:44:10;;;;;;;8.48;6.00;;;1.30;99.90;;;;;;4969706;28;20188;-60
2023/01/22 01:47:00;;;;;;;11.63;6.15;;;1.20;99.90;;;;;;4944127;28;20050;-60
2023/01/22 01:49:49;;;;;;;10.55;6.57;;;1.20;99.90;;;;;;4959427;28;20058;-60
2023/01/22 01:52:16;;;;;;;9.93;6.50;;;1.20;99.90;;;;;;4956786;28;20410;-60
2023/01/22 01:54:47;;;;;;;11.95;6.85;;;1.20;99.90;;;;;;4957707;28;20080;-61
2023/01/22 01:57:20;;;;;;;12.43;6.85;;;1.20;99.90;;;;;;4973439;28;20512;-61
2023/01/22 01:59:48;;;;;;;10.30;6.53;;;1.20;99.90;;;;;;4966409;28;20075;-60
2023/01/22 02:02:15;;;;;;;13.65;8.02;;;1.20;99.90;;;;;;4984095;28;20038;-60
2023/01/22 02:04:41;;;;;;;14.80;6.78;;;1.20;99.90;;;;;;4949850;28;20042;-61
2023/01/22 02:07:06;;;;;;;12.90;7.03;;;1.20;99.90;;;;;;4960546;28;20047;-61
2023/01/22 02:09:32;;;;;;;14.52;7.53;;;1.20;99.90;;;;;;4961188;28;20561;-60
2023/01/22 02:11:58;;;;;;;11.15;6.03;;;1.20;99.90;;;;;;4957461;28;20098;-60
2023/01/22 02:14:31;;;;;;;11.55;7.82;;;1.10;99.90;;;;;;4962145;28;20042;-61
2023/01/22 02:17:04;;;;;;;14.77;6.97;;;1.10;99.90;;;;;;4950612;28;20051;-61
2023/01/22 02:19:30;;;;;;;12.88;6.97;;;1.10;99.90;;;;;;4958871;28;20050;-60
2023/01/22 02:21:56;;;;;;;14.30;7.93;;;1.10;99.90;;;;;;4974461;23;20035;-62
2023/01/22 02:24:21;;;;;;;13.77;6.75;;;1.10;99.90;;;;;;4957337;28;20047;-60
2023/01/22 02:26:47;;;;;;;14.60;7.72;;;1.10;99.90;;;;;;4963012;28;20309;-62
2023/01/22 02:29:14;;;;;;;13.05;7.55;;;1.10;99.90;;;;;;4958396;28;20050;-62
2023/01/22 02:31:40;;;;;;;12.82;7.00;;;1.10;99.90;;;;;;4960030;28;20473;-59
2023/01/22 02:34:08;;;;;;;12.85;7.72;;;1.00;99.90;;;;;;4939468;28;20047;-61
2023/01/22 02:36:35;;;;;;;12.55;7.28;;;1.00;99.90;;;;;;4948344;28;20046;-62
2023/01/22 02:39:01;;;;;;;11.98;6.63;;;1.00;99.90;;;;;;4938526;28;20117;-62
2023/01/22 02:41:27;;;;;;;14.27;8.13;;;1.00;99.90;;;;;;4956398;28;20589;-62
2023/01/22 02:43:53;;;;;;;12.32;7.28;;;1.00;99.90;;;;;;4959273;28;20383;-61
2023/01/22 02:46:19;;;;;;;16.40;7.95;;;1.00;99.90;;;;;;4952956;28;20043;-59
2023/01/22 02:48:45;;;;;;;15.48;6.80;;;1.00;99.90;;;;;;4965633;28;20046;-61
2023/01/22 02:51:11;;;;;;;11.77;7.10;;;1.00;99.90;;;;;;4937307;28;20062;-62
2023/01/22 02:53:36;;;;;;;14.45;7.00;;;1.10;99.90;;;;;;4955322;28;20050;-60
2023/01/22 02:56:10;;;;;;;14.38;7.28;;;1.10;99.90;;;;;;4964519;28;20043;-62
2023/01/22 02:58:36;;;;;;;12.65;7.85;;;1.10;99.90;;;;;;4962491;28;20126;-61
2023/01/22 03:01:28;;;;;;;16.65;7.30;;;1.10;99.90;;;;;;4959446;28;20484;-61
2023/01/22 03:04:00;;;;;;;14.80;7.03;;;1.10;99.90;;;;;;4952288;28;20058;-60
2023/01/22 03:06:28;;;;;;;14.60;7.97;;;1.20;99.90;;;;;;4962705;28;20038;-62
2023/01/22 03:08:56;;;;;;;9.15;5.85;;;1.20;99.90;;;;;;4968989;28;20057;-61
2023/01/22 03:11:24;;;;;;;11.40;6.30;;;1.20;99.90;;;;;;4949117;28;20039;-59
2023/01/22 03:22:03;;;;;;;17.00;7.05;;;1.30;99.90;;;;;;4948875;28;20039;-61
2023/01/22 03:24:29;;;;;;;9.52;5.68;;;1.30;99.90;;;;;;4943452;28;20066;-62
2023/01/22 03:26:55;;;;;;;14.68;5.97;;;1.40;99.90;;;;;;4961268;28;20031;-60
2023/01/22 03:29:21;;;;;;;11.52;5.90;;;1.40;99.90;;;;;;4959542;28;20058;-61
2023/01/22 03:31:47;;;;;;;9.43;5.53;;;1.50;99.90;;;;;;4959875;28;20105;-62
2023/01/22 03:34:18;;;;;;;10.13;5.40;;;1.50;99.90;;;;;;4962126;28;20076;-61
2023/01/22 03:36:45;;;;;;;9.30;6.05;;;1.60;99.90;;;;;;4954260;28;20061;-62
2023/01/22 03:39:11;;;;;;;8.27;5.18;;;1.50;99.90;;;;;;4950371;28;20077;-62
2023/01/22 03:41:37;;;;;;;10.23;5.35;;;1.60;99.90;;;;;;4952876;28;20304;-61
2023/01/22 03:44:03;;;;;;;9.43;4.90;;;1.60;99.90;;;;;;4961989;28;20053;-62
2023/01/22 03:46:29;;;;;;;10.38;5.47;;;1.60;99.90;;;;;;4957358;28;20034;-62
2023/01/22 03:48:56;;;;;;;11.45;5.32;;;1.60;99.90;;;;;;4965687;28;20042;-63
2023/01/22 03:51:22;;;;;;;8.30;4.22;;;1.60;99.90;;;;;;4957423;28;20042;-61
2023/01/22 03:53:48;;;;;;;9.77;5.20;;;1.60;99.90;;;;;;4959417;28;20038;-62
2023/01/22 03:56:20;;;;;;;9.40;4.88;;;1.60;99.90;;;;;;4959338;28;20049;-61
2023/01/22 03:58:46;;;;;;;13.55;4.93;;;1.60;99.90;;;;;;4963261;28;20295;-62
2023/01/22 04:01:23;;;;;;;11.30;4.30;;;1.70;99.90;;;;;;4958686;28;20417;-62
2023/01/22 04:03:49;;;;;;;5.97;4.05;;;1.70;99.90;;;;;;4957885;28;20077;-61
2023/01/22 04:06:15;;;;;;;7.10;3.85;;;1.70;99.90;;;;;;4948729;28;20264;-62
2023/01/22 04:08:43;;;;;;;12.38;4.50;;;1.70;99.90;;;;;;4953982;28;20045;-61
2023/01/22 04:11:10;;;;;;;8.10;4.20;;;1.70;99.90;;;;;;4959377;28;20048;-61
2023/01/22 04:13:37;;;;;;;8.57;3.88;;;1.70;99.90;;;;;;4956044;28;20094;-61
2023/01/22 04:16:03;;;;;;;9.45;3.92;;;1.70;99.90;;;;;;4957902;28;20481;-61
2023/01/22 04:18:29;;;;;;;6.22;4.05;;;1.70;99.90;;;;;;4942212;28;20042;-63
2023/01/22 04:20:55;;;;;;;10.88;4.80;;;1.70;99.90;;;;;;4957501;28;20061;-63
2023/01/22 04:23:22;;;;;;;11.45;4.70;;;1.70;99.90;;;;;;4950820;28;20418;-62
2023/01/22 04:25:48;;;;;;;7.38;4.65;;;1.70;99.90;;;;;;4951866;28;20066;-62
2023/01/22 04:28:15;;;;;;;11.57;4.50;;;1.80;99.90;;;;;;4954393;28;20042;-68
2023/01/22 04:30:42;;;;;;;9.75;4.68;;;1.70;99.90;;;;;;4962106;28;20090;-63
2023/01/22 04:33:09;;;;;;;7.07;4.40;;;1.70;99.90;;;;;;4956522;28;20045;-63
2023/01/22 04:35:35;;;;;;;9.80;5.60;;;1.80;99.90;;;;;;4956633;28;20035;-62
2023/01/22 04:38:02;;;;;;;9.60;5.45;;;1.80;99.90;;;;;;4951063;28;20047;-60
2023/01/22 04:40:28;;;;;;;11.23;4.97;;;1.80;99.90;;;;;;4951837;28;20042;-63
2023/01/22 04:42:54;;;;;;;7.35;4.40;;;1.80;99.90;;;;;;4956111;28;20040;-62
2023/01/22 04:45:20;;;;;;;8.88;5.07;;;1.80;99.90;;;;;;4948652;28;20053;-62
2023/01/22 04:47:47;;;;;;;8.77;5.43;;;1.90;99.90;;;;;;4956071;28;20060;-62
2023/01/22 04:50:18;;;;;;;8.60;4.95;;;1.90;99.90;;;;;;4956593;28;20047;-62
2023/01/22 04:52:44;;;;;;;7.22;5.25;;;1.90;99.90;;;;;;4953437;28;20050;-62
2023/01/22 04:55:10;;;;;;;6.88;4.72;;;1.90;99.90;;;;;;4949389;28;20125;-62
2023/01/22 04:57:36;;;;;;;7.70;5.22;;;2.00;99.90;;;;;;4958884;28;20051;-62
2023/01/22 05:00:06;;;;;;;7.43;5.40;;;2.00;99.90;;;;;;4954075;28;20043;-62
2023/01/22 05:02:32;;;;;;;16.17;7.10;;;1.90;99.90;;;;;;4943537;28;22356;-61
2023/01/22 05:04:57;;;;;;;11.73;5.30;;;1.90;99.90;;;;;;4959395;28;20407;-60
2023/01/22 05:07:23;;;;;;;8.85;5.40;;;1.90;99.90;;;;;;4953105;28;20466;-60
2023/01/22 05:09:49;;;;;;;9.18;4.88;;;2.00;99.90;;;;;;4963720;28;20039;-62
2023/01/22 05:12:15;;;;;;;10.73;5.05;;;1.90;99.90;;;;;;4960621;28;20046;-59
2023/01/22 05:14:40;;;;;;;12.15;5.07;;;2.00;99.90;;;;;;4958392;28;20038;-62
2023/01/22 05:17:06;;;;;;;8.07;5.15;;;1.90;99.90;;;;;;4959981;28;20045;-60
2023/01/22 05:19:34;;;;;;;13.43;5.50;;;2.00;99.90;;;;;;4955219;28;20039;-59
2023/01/22 05:22:00;;;;;;;7.90;4.78;;;2.00;99.90;;;;;;4960736;28;20059;-61
2023/01/22 05:24:26;;;;;;;7.18;4.68;;;2.00;99.90;;;;;;4954971;28;20051;-60
2023/01/22 05:26:51;;;;;;;8.65;4.53;;;2.00;99.90;;;;;;4958649;28;20046;-61
2023/01/22 05:29:17;;;;;;;9.18;4.53;;;2.00;99.90;;;;;;4954567;28;20479;-62
2023/01/22 05:34:11;;;;;;;11.32;5.88;;;2.00;99.90;;;;;;5003053;28;20057;-57
2023/01/22 05:36:36;;;;;;;7.97;4.80;;;2.00;99.90;;;;;;5004025;28;20042;-57
2023/01/22 05:39:02;;;;;;;10.30;4.80;;;2.00;99.90;;;;;;5002774;28;20446;-57
2023/01/22 05:41:28;;;;;;;11.55;5.03;;;2.00;99.90;;;;;;4996655;28;20120;-57
2023/01/22 05:43:53;;;;;;;9.57;4.72;;;1.90;99.90;;;;;;4996799;28;20081;-57
2023/01/22 05:46:19;;;;;;;7.43;4.45;;;2.10;99.90;;;;;;5003059;28;20037;-57
2023/01/22 05:48:45;;;;;;;8.18;4.60;;;2.00;99.90;;;;;;5003354;28;20034;-57
2023/01/22 05:51:11;;;;;;;5.85;4.35;;;2.00;99.90;;;;;;5002372;28;20096;-56
2023/01/22 05:53:36;;;;;;;7.78;4.35;;;2.00;99.90;;;;;;5008648;28;20389;-57
2023/01/22 05:56:04;;;;;;;6.75;4.82;;;2.00;99.90;;;;;;5007286;28;20296;-57
2023/01/22 05:58:31;;;;;;;9.43;4.80;;;2.00;99.90;;;;;;5011010;28;20088;-57
2023/01/22 06:00:58;;;;;;;8.05;4.20;;;2.00;99.90;;;;;;4999266;28;20066;-56
2023/01/22 06:03:24;;;;;;;15.63;4.70;;;2.00;99.90;;;;;;5003967;28;20045;-57
2023/01/22 06:06:16;;;;;;;9.13;3.65;;;2.00;99.90;;;;;;5006187;28;20459;-57
2023/01/22 06:08:41;;;;;;;6.32;3.78;;;2.00;99.90;;;;;;5000893;28;20061;-57
2023/01/22 06:11:11;;;;;;;10.73;4.10;;;2.00;99.90;;;;;;5000711;28;20030;-56
2023/01/22 06:13:37;;;;;;;9.18;3.90;;;2.10;99.90;;;;;;5006496;28;20033;-57
2023/01/22 06:16:03;;;;;;;9.93;4.28;;;2.10;99.90;;;;;;5003751;28;20029;-57
2023/01/22 06:18:29;;;;;;;7.13;4.05;;;2.00;99.90;;;;;;4995889;28;20125;-57
2023/01/22 06:20:59;;;;;;;5.75;4.20;;;2.10;99.90;;;;;;5001931;28;20183;-57
2023/01/22 06:23:26;;;;;;;5.45;3.38;;;2.10;99.90;;;;;;5001918;28;20045;-56
2023/01/22 06:25:53;;;;;;;6.78;3.42;;;2.10;99.90;;;;;;5003428;28;20046;-57
2023/01/22 06:28:19;;;;;;;6.55;3.75;;;2.10;99.90;;;;;;4991965;28;20120;-58
2023/01/22 06:30:45;;;;;;;10.88;3.92;;;2.10;99.90;;;;;;4994761;28;20040;-56
2023/01/22 06:33:11;;;;;;;7.30;3.20;;;2.10;99.90;;;;;;4997763;28;20105;-57
2023/01/22 06:35:37;;;;;;;8.27;4.10;;;2.10;99.90;;;;;;4984091;28;20042;-57
2023/01/22 06:38:03;;;;;;;6.68;3.95;;;2.10;99.90;;;;;;4996940;28;20065;-57
2023/01/22 06:40:29;;;;;;;6.80;3.83;;;2.10;99.90;;;;;;4998081;28;20099;-58
2023/01/22 06:42:56;;;;;;;11.30;3.80;;;2.10;99.90;;;;;;5000915;28;20041;-57
2023/01/22 06:45:23;;;;;;;11.07;4.57;;;2.10;99.90;;;;;;4995025;28;20062;-57
2023/01/22 06:47:48;;;;;;;8.90;4.03;;;2.10;99.90;;;;;;4999630;28;20501;-56
2023/01/22 06:50:14;;;;;;;11.32;4.22;;;2.10;99.90;;;;;;5001546;28;20117;-57
2023/01/22 06:52:40;;;;;;;7.78;3.63;;;2.10;99.90;;;;;;4986955;28;20507;-57
2023/01/22 06:55:06;;;;;;;8.00;3.50;;;2.10;99.90;;;;;;4969391;28;20195;-57
2023/01/22 06:57:32;;;;;;;6.10;3.72;;;2.10;99.90;;;;;;4997752;28;20053;-57
2023/01/22 06:59:58;;;;;;;7.50;4.18;;;2.10;99.90;;;;;;4979296;28;20042;-57
2023/01/22 07:02:24;;;;;;;6.95;3.90;;;2.10;99.90;;;;;;4998992;28;20096;-57
2023/01/22 07:04:50;;;;;;;6.53;3.78;;;2.10;99.90;;;;;;5003452;28;20424;-57
2023/01/22 07:07:15;;;;;;;6.78;3.40;;;2.10;99.90;;;;;;4997246;28;20172;-58
2023/01/22 07:09:41;;;;;;;10.05;4.28;;;2.10;99.90;;;;;;5002046;28;20064;-58
2023/01/22 07:12:07;;;;;;;7.72;4.32;;;2.10;99.90;;;;;;4998359;28;20064;-57
2023/01/22 07:14:33;;;;;;;9.23;5.85;;;2.10;99.90;;;;;;5000369;28;20049;-58
2023/01/22 07:16:59;;;;;;;9.55;4.53;;;2.10;99.90;;;;;;4981608;28;20493;-58
2023/01/22 07:19:24;;;;;;;5.97;3.72;;;2.10;99.90;;;;;;5030184;28;20176;-58
2023/01/22 07:21:50;;;;;;;7.68;4.15;;;2.10;99.90;;;;;;4998055;28;20524;-57
2023/01/22 07:24:17;;;;;;;7.78;4.40;;;2.10;99.90;;;;;;4983988;28;20050;-57
2023/01/22 07:26:42;;;;;;;8.77;4.30;;;2.10;99.90;;;;;;4979470;28;20088;-58
2023/01/22 07:29:09;;;;;;;6.15;3.60;;;2.10;99.90;;;;;;5029940;28;20045;-58
2023/01/22 07:31:35;;;;;;;5.85;3.25;;;2.10;99.90;;;;;;4997190;28;20099;-58
2023/01/22 07:34:02;;;;;;;6.90;3.63;;;2.10;99.90;;;;;;4980524;28;20065;-57
2023/01/22 07:36:28;;;;;;;6.95;2.95;;;2.00;99.90;;;;;;4998481;28;20037;-58
2023/01/22 07:38:54;;;;;;;6.93;3.28;;;2.00;99.90;;;;;;5014152;28;20042;-56
2023/01/22 07:41:19;;;;;;;10.20;3.60;;;2.00;99.90;;;;;;4999309;28;20041;-58
2023/01/22 07:43:48;;;;;;;5.50;3.35;;;2.00;99.90;;;;;;5000640;28;20555;-57
2023/01/22 07:46:14;;;;;;;8.73;3.63;;;2.00;99.90;;;;;;5004045;28;20050;-57
2023/01/22 07:48:39;;;;;;;5.10;3.60;;;2.00;99.90;;;;;;5002157;28;20525;-58
2023/01/22 07:51:05;;;;;;;7.82;3.50;;;2.00;99.90;;;;;;4978167;28;20053;-57
2023/01/22 07:53:33;;;;;;;6.97;4.00;;;2.00;99.90;;;;;;4991989;28;20442;-57
2023/01/22 07:56:00;;;;;;;8.60;3.70;;;2.00;99.90;;;;;;5005116;28;20597;-58
2023/01/22 07:58:26;;;;;;;8.10;4.00;;;2.00;99.90;;;;;;5017551;28;20121;-58
2023/01/22 08:00:52;;;;;;;5.20;3.53;;;2.10;99.90;;;;;;5000394;28;20268;-58
2023/01/22 08:03:18;;;;;;;5.82;3.72;;;2.10;99.90;;;;;;4990976;28;20481;-58
2023/01/22 08:05:44;;;;;;;6.97;4.15;;;2.10;99.90;;;;;;5010576;28;20034;-58
2023/01/22 08:08:15;;;;;;;6.13;3.60;;;2.10;99.90;;;;;;4994122;28;20052;-58
2023/01/22 08:10:41;;;;;;;10.10;4.18;;;2.10;99.90;;;;;;4997801;28;20042;-57
2023/01/22 08:13:07;;;;;;;8.40;3.83;;;2.10;99.90;;;;;;5014236;28;20085;-58
2023/01/22 08:15:33;;;;;;;9.02;4.10;;;2.10;99.90;;;;;;4983183;28;20034;-58
2023/01/22 08:17:59;;;;;;;7.47;3.67;;;2.10;99.90;;;;;;5000216;28;20562;-58
2023/01/22 08:20:25;;;;;;;6.90;4.20;;;2.10;99.90;;;;;;4997629;28;20038;-57
2023/01/22 08:22:55;;;;;;;10.27;4.07;;;2.10;99.90;;;;;;4999864;28;20141;-58
2023/01/22 08:25:21;;;;;;;8.65;3.90;;;2.10;99.90;;;;;;4994488;28;23220;-57
2023/01/22 08:27:46;;;;;;;7.65;4.30;;;2.10;99.90;;;;;;4999785;28;20120;-57
2023/01/22 08:30:14;;;;;;;7.38;4.13;;;2.10;99.90;;;;;;4981104;28;20065;-57
2023/01/22 08:32:40;;;;;;;9.23;4.45;;;2.10;99.90;;;;;;4975409;28;20034;-58
2023/01/22 08:35:07;;;;;;;7.28;4.32;;;2.10;99.90;;;;;;4996918;28;20137;-58
2023/01/22 08:37:33;;;;;;;12.07;4.05;;;2.10;99.90;;;;;;4994140;28;20050;-57
2023/01/22 08:39:59;;;;;;;6.20;3.58;;;2.10;99.90;;;;;;4994527;28;20046;-57
2023/01/22 08:42:24;;;;;;;8.18;4.55;;;2.20;99.90;;;;;;4964103;28;20494;-57
2023/01/22 08:44:50;;;;;;;7.93;4.53;;;2.20;99.90;;;;;;5020880;28;20037;-56
2023/01/22 08:47:16;;;;;;;8.75;5.07;;;2.20;99.90;;;;;;4999932;28;20046;-57
2023/01/22 08:49:41;;;;;;;8.20;5.00;;;2.20;99.90;;;;;;5000130;28;20053;-57
2023/01/22 08:52:07;;;;;;;8.32;4.68;;;2.20;99.90;;;;;;5000085;28;20042;-57
2023/01/22 08:54:33;;;;;;;5.25;4.47;;;2.20;99.90;;;;;;5028651;28;20100;-57
2023/01/22 08:56:59;;;;;;;8.82;4.88;;;2.20;99.90;;;;;;4996286;28;20038;-57
2023/01/22 08:59:25;;;;;;;9.80;5.75;;;2.20;99.90;;;;;;5025999;28;20039;-55
2023/01/22 09:01:51;;;;;;;10.43;4.95;;;2.20;99.90;;;;;;4967894;28;20042;-58
2023/01/22 09:04:18;;;;;;;6.07;4.65;;;2.20;99.90;;;;;;5002684;28;20041;-57
2023/01/22 09:06:44;;;;;;;10.30;5.68;;;2.20;99.90;;;;;;4982741;28;20096;-56
2023/01/22 09:09:11;;;;;;;13.48;5.22;;;2.20;99.90;;;;;;4994301;28;20046;-57
2023/01/22 09:11:37;;;;;;;7.47;4.60;;;2.20;99.90;;;;;;4979637;28;20416;-56
2023/01/22 09:14:06;;;;;;;7.40;4.80;;;2.20;99.90;;;;;;5001251;28;20108;-57
2023/01/22 09:16:32;;;;;;;10.65;4.85;;;2.20;99.90;;;;;;5005552;28;20088;-56
2023/01/22 09:18:58;;;;;;;8.55;5.32;;;2.20;99.90;;;;;;4996792;28;20052;-56
2023/01/22 09:21:24;;;;;;;11.82;6.10;;;2.30;99.90;;;;;;5015106;28;20041;-57
2023/01/22 09:23:49;;;;;;;8.10;5.85;;;2.30;99.90;;;;;;5001802;28;20057;-56
2023/01/22 09:26:15;;;;;;;8.70;5.38;;;2.30;99.90;;;;;;4987060;28;20586;-56
2023/01/22 09:28:41;;;;;;;11.07;5.45;;;2.30;99.90;;;;;;5004266;28;20103;-57
2023/01/22 09:31:10;;;;;;;9.43;5.18;;;2.30;99.90;;;;;;5003047;28;20038;-56
2023/01/22 09:33:36;;;;;;;8.48;5.10;;;2.30;99.90;;;;;;4999862;28;20100;-54
2023/01/22 09:36:11;;;;;;;10.70;7.30;;;2.30;99.90;;;;;;4998032;28;20030;-57
2023/01/22 09:38:37;;;;;;;11.85;5.38;;;2.30;99.90;;;;;;5005994;28;20041;-56
2023/01/22 09:41:12;;;;;;;7.93;5.50;;;2.30;99.90;;;;;;5004772;28;20185;-55
2023/01/22 09:43:46;;;;;;;8.32;5.90;;;2.40;99.90;;;;;;5003786;28;20048;-57
2023/01/22 09:46:21;;;;;;;9.95;5.80;;;2.40;99.90;;;;;;5007031;28;20042;-56
2023/01/22 09:48:52;;;;;;;10.32;6.03;;;2.40;99.90;;;;;;5017040;28;20435;-57
2023/01/22 09:51:18;;;;;;;7.85;6.25;;;2.40;99.90;;;;;;5018156;28;20042;-56
2023/01/22 09:53:51;;;;;;;6.65;5.43;;;2.40;99.90;;;;;;4983861;28;20097;-57
2023/01/22 09:56:20;;;;;;;10.00;5.77;;;2.40;99.90;;;;;;5003220;28;20092;-57
2023/01/22 09:58:48;;;;;;;10.85;6.50;;;2.40;99.90;;;;;;4990188;28;20080;-56
2023/01/22 10:01:15;;;;;;;9.57;6.28;;;2.40;99.90;;;;;;4995191;28;20054;-56
2023/01/22 10:03:47;;;;;;;15.13;6.45;;;2.40;99.90;;;;;;4985558;28;20042;-57
2023/01/22 10:06:17;;;;;;;13.68;6.93;;;2.40;99.90;;;;;;4998063;28;20480;-56
2023/01/22 10:08:58;;;;;;;9.57;6.65;;;2.50;99.90;;;;;;5000321;28;20163;-54
2023/01/22 10:11:24;;;;;;;12.70;6.53;;;2.50;99.90;;;;;;5019929;28;20046;-56
2023/01/22 10:13:55;;;;;;;13.52;7.25;;;2.50;99.90;;;;;;4999971;28;20057;-56
2023/01/22 10:16:20;;;;;;;14.82;6.80;;;2.50;99.90;;;;;;4979812;28;20064;-56
2023/01/22 10:19:04;;;;;;;11.40;6.95;;;2.50;99.90;;;;;;4986053;28;20509;-57
2023/01/22 10:21:32;;;;;;;;;;;2.50;99.90;;;;;;4993970;28;20467;-57
2023/01/22 10:23:58;;;;;;;10.13;6.15;;;2.50;99.90;;;;;;4998681;28;19917;-57
2023/01/22 10:26:31;;;;;;;9.48;6.38;;;2.60;99.90;;;;;;4992884;28;20048;-59
2023/01/22 10:29:06;;;;;;;11.38;6.53;;;2.60;99.90;;;;;;5016051;28;20497;-56
2023/01/22 10:31:39;;;;;;;10.55;6.68;;;2.70;99.90;;;;;;4995655;28;20084;-56
2023/01/22 10:34:13;;;;;;;14.37;8.23;;;2.70;99.90;;;;;;5013897;28;20382;-57
2023/01/22 10:36:46;;;;;;;9.93;6.38;;;2.60;99.90;;;;;;5000149;28;20869;-57
2023/01/22 10:39:14;;;;;;;10.88;6.05;;;2.70;99.90;;;;;;4995732;28;20141;-56
2023/01/22 10:41:41;;;;;;;14.82;6.50;;;2.60;99.90;;;;;;4996378;28;20054;-57
2023/01/22 10:44:25;;;;;;;9.50;6.60;;;2.70;99.90;;;;;;4997800;28;20037;-56
2023/01/22 10:46:53;;;;;;;10.55;6.65;;;2.70;99.90;;;;;;4998914;28;20053;-57
2023/01/22 10:49:25;;;;;;;9.73;6.03;;;2.70;99.90;;;;;;4985120;28;20076;-57
2023/01/22 10:51:56;;;;;;;10.75;5.43;;;2.70;99.90;;;;;;5030648;28;20050;-58
2023/01/22 10:54:31;;;;;;;7.68;5.40;;;2.70;99.90;;;;;;4996973;28;20041;-56
2023/01/22 10:57:26;;;;;;;10.20;5.32;;;2.60;99.90;;;;;;4997415;28;20058;-56
2023/01/22 10:59:54;;;;;;;;;;;2.60;99.90;;;;;;4978834;28;20058;-56
2023/01/22 11:02:27;;;;;;;13.20;6.07;;;2.60;99.90;;;;;;5010385;22;19922;-53
2023/01/22 11:04:53;;;;;;;11.27;4.70;;;2.60;99.90;;;;;;4981295;28;20042;-56
2023/01/22 11:07:27;;;;;;;8.30;5.03;;;2.70;99.90;;;;;;4966813;28;20037;-56
2023/01/22 11:12:48;;;;;;;10.55;5.53;;;2.80;99.90;;;;;;4996770;28;20054;-62
2023/01/22 11:15:42;;;;;;;10.15;5.53;;;2.70;99.90;;;;;;4989608;28;20046;-62
2023/01/22 11:18:16;;;;;;;6.85;5.15;;;2.70;99.90;;;;;;5001733;28;20620;-62
2023/01/22 11:20:52;;;;;;;8.77;5.60;;;2.80;99.90;;;;;;4983475;28;20046;-62
2023/01/22 11:23:30;;;;;;;9.27;5.70;;;2.80;99.90;;;;;;5013846;28;20176;-63
2023/01/22 11:26:09;;;;;;;9.90;5.45;;;2.90;99.90;;;;;;5007861;28;20061;-63
2023/01/22 11:28:47;;;;;;;10.45;6.40;;;2.90;99.90;;;;;;4972652;28;20061;-63
2023/01/22 11:31:27;;;;;;;8.02;5.53;;;3.00;99.90;;;;;;4986929;28;20052;-62
2023/01/22 11:34:18;;;;;;;8.43;5.60;;;3.00;99.90;;;;;;4996880;28;20538;-62
2023/01/22 11:37:03;;;;;;;8.88;5.25;;;3.00;99.90;;;;;;4994052;28;20037;-63
2023/01/22 11:39:47;;;;;;;7.55;5.60;;;3.00;99.90;;;;;;4998266;28;20038;-61
2023/01/22 11:45:23;;;;;;;7.97;5.65;;;3.10;99.90;;;;;;5005958;28;19921;-59
2023/01/22 11:47:56;;;;;;;7.95;5.43;;;3.10;99.90;;;;;;5001912;28;20060;-59
2023/01/22 11:50:38;;;;;;;10.52;6.13;;;3.20;99.90;;;;;;4997280;28;20048;-59
2023/01/22 11:53:25;;;;;;;9.32;6.15;;;3.20;99.90;;;;;;5014695;28;20408;-59
2023/01/22 11:55:54;;;;;;;10.70;6.35;;;3.30;99.90;;;;;;5023835;28;20048;-59
2023/01/22 11:58:28;;;;;;;8.63;5.75;;;3.30;99.90;;;;;;5017737;28;20192;-59
2023/01/22 12:01:04;;;;;;;8.57;5.97;;;3.30;99.90;;;;;;5014602;28;20045;-60
2023/01/22 12:03:41;;;;;;;8.50;6.47;;;3.40;99.90;;;;;;4998330;28;20520;-59
2023/01/22 12:06:36;;;;;;;8.38;6.07;;;3.40;99.90;;;;;;5020712;28;20056;-58
2023/01/22 12:09:22;;;;;;;;;;;3.40;99.90;;;;;;5013044;28;20053;-58
2023/01/22 12:12:22;;;;;;;7.93;5.05;;;3.40;99.90;;;;;;5001689;28;19916;-58
2023/01/22 12:14:55;;;;;;;10.43;5.88;;;3.50;99.90;;;;;;5013951;28;20065;-59
2023/01/22 12:17:50;;;;;;;8.45;5.68;;;3.50;99.90;;;;;;5015633;28;20029;-58
2023/01/22 12:20:34;;;;;;;9.73;5.55;;;3.50;99.90;;;;;;4995957;28;20053;-58
2023/01/22 12:23:08;;;;;;;7.50;5.07;;;3.50;99.90;;;;;;5022392;28;20060;-59
2023/01/22 12:26:01;;;;;;;9.02;5.35;;;3.50;99.90;;;;;;5017506;28;20033;-59
2023/01/22 12:28:41;;;;;;;10.82;5.57;;;3.60;99.90;;;;;;5017994;28;20049;-59
2023/01/22 12:31:27;;;;;;;7.50;5.05;;;3.60;99.90;;;;;;4976782;28;20066;-59
2023/01/22 12:33:53;;;;;;;9.07;4.70;;;3.50;99.90;;;;;;4982534;28;20091;-60
2023/01/22 12:36:22;;;;;;;8.85;5.78;;;3.50;99.90;;;;;;4986363;28;20049;-60
2023/01/22 12:39:13;;;;;;;7.72;5.25;;;3.60;99.90;;;;;;5001030;28;20041;-59
2023/01/22 12:41:48;;;;;;;8.60;5.57;;;3.50;99.90;;;;;;5020161;28;20120;-59
2023/01/22 12:44:23;;;;;;;9.90;6.22;;;3.60;99.90;;;;;;4983404;28;20385;-60
2023/01/22 12:47:03;;;;;;;7.40;5.10;;;3.60;99.90;;;;;;4993614;28;20049;-59
2023/01/22 12:49:29;;;;;;;10.70;5.50;;;3.60;99.90;;;;;;5001956;28;20076;-60
2023/01/22 12:51:58;;;;;;;8.50;5.15;;;3.60;99.90;;;;;;4999735;28;20440;-59
2023/01/22 12:54:34;;;;;;;7.38;5.07;;;3.60;99.90;;;;;;4988578;28;20107;-59
2023/01/22 12:57:19;;;;;;;9.52;4.78;;;3.70;99.90;;;;;;4999786;28;20048;-60
2023/01/22 12:59:49;;;;;;;10.70;4.63;;;3.70;99.90;;;;;;5013345;28;20198;-60
2023/01/22 13:02:23;;;;;;;9.35;5.30;;;3.70;99.90;;;;;;4975238;28;20046;-60
2023/01/22 13:04:49;;;;;;;8.85;5.60;;;3.70;99.90;;;;;;5020032;28;20037;-60
2023/01/22 13:07:30;;;;;;;10.32;5.05;;;3.70;99.90;;;;;;5018379;28;20037;-58
2023/01/22 13:10:20;;;;;;;8.07;4.97;;;3.70;99.90;;;;;;5015565;28;20038;-59
2023/01/22 13:12:49;;;;;;;8.68;5.18;;;3.80;99.90;;;;;;5022323;28;20117;-59
2023/01/22 13:15:25;;;;;;;8.48;4.30;;;3.80;99.90;;;;;;5007731;28;20443;-60
2023/01/22 13:18:01;;;;;;;6.70;4.10;;;3.80;99.90;;;;;;5016627;28;21613;-60
2023/01/22 13:20:32;;;;;;;6.55;4.40;;;3.80;99.90;;;;;;5004795;28;20061;-60